createdAt,value
2022-11-01T00:02:19.140Z,10.20
2022-11-01T00:05:21.276Z,10.20
2022-11-01T00:08:23.386Z,10.20
2022-11-01T00:11:25.472Z,10.20
2022-11-01T00:14:27.712Z,10.20
2022-11-01T00:17:29.822Z,10.20
2022-11-01T00:20:31.924Z,10.20
2022-11-01T00:23:34.019Z,10.20
2022-11-01T00:26:36.173Z,10.10
2022-11-01T00:29:38.337Z,10.10
2022-11-01T00:32:40.495Z,10.10
2022-11-01T00:35:42.661Z,10.10
2022-11-01T00:38:44.783Z,10.10
2022-11-01T00:41:46.895Z,10.00
2022-11-01T00:44:48.993Z,10.00
2022-11-01T00:47:51.033Z,10.00
2022-11-01T00:50:53.290Z,10.00
2022-11-01T00:53:55.356Z,10.00
2022-11-01T00:56:57.468Z,10.00
2022-11-01T00:59:59.507Z,10.10
2022-11-01T01:03:02.105Z,10.00
2022-11-01T01:06:04.762Z,10.00
2022-11-01T01:09:07.115Z,10.10
2022-11-01T01:12:09.379Z,10.10
2022-11-01T01:15:11.688Z,10.10
2022-11-01T01:18:14.097Z,10.10
2022-11-01T01:21:17.577Z,10.10
2022-11-01T01:24:20.075Z,10.10
2022-11-01T01:27:22.252Z,10.10
2022-11-01T01:30:24.382Z,10.20
2022-11-01T01:33:26.640Z,10.20
2022-11-01T01:36:28.760Z,10.20
2022-11-01T01:39:30.894Z,10.20
2022-11-01T01:42:34.978Z,10.20
2022-11-01T01:45:40.397Z,10.20
2022-11-01T01:48:43.569Z,10.20
2022-11-01T01:51:45.676Z,10.30
2022-11-01T01:54:48.128Z,10.40
2022-11-01T01:57:50.549Z,10.30
2022-11-01T02:00:54.190Z,10.40
2022-11-01T02:03:56.422Z,10.40
2022-11-01T02:06:59.001Z,10.50
2022-11-01T02:10:01.109Z,10.40
2022-11-01T02:13:03.347Z,10.50
2022-11-01T02:16:44.788Z,10.50
2022-11-01T02:19:59.425Z,10.60
2022-11-01T02:23:04.755Z,10.60
2022-11-01T02:26:40.868Z,10.60
2022-11-01T02:29:58.245Z,10.70
2022-11-01T02:33:03.553Z,10.70
2022-11-01T02:36:29.625Z,10.70
2022-11-01T02:39:33.984Z,10.70
2022-11-01T02:42:38.885Z,10.70
2022-11-01T02:45:42.968Z,10.80
2022-11-01T02:48:45.102Z,10.80
2022-11-01T02:51:47.189Z,10.60
2022-11-01T02:54:57.134Z,10.60
2022-11-01T02:58:20.946Z,10.60
2022-11-01T03:01:25.022Z,10.80
2022-11-01T03:04:27.231Z,11.10
2022-11-01T03:07:29.264Z,11.10
2022-11-01T03:11:02.232Z,11.20
2022-11-01T03:14:30.036Z,11.30
2022-11-01T03:17:39.738Z,11.20
2022-11-01T03:20:48.223Z,11.10
2022-11-01T03:24:03.175Z,11.00
2022-11-01T03:27:28.119Z,10.90
2022-11-01T03:30:30.781Z,10.80
2022-11-01T03:33:34.070Z,10.70
2022-11-01T03:36:39.880Z,10.60
2022-11-01T03:39:47.480Z,10.60
2022-11-01T03:42:49.929Z,10.70
2022-11-01T03:45:52.160Z,10.70
2022-11-01T03:48:54.274Z,10.60
2022-11-01T03:51:56.377Z,10.60
2022-11-01T03:54:58.477Z,10.60
2022-11-01T03:58:00.891Z,10.60
2022-11-01T04:01:03.327Z,10.60
2022-11-01T04:04:05.600Z,10.60
2022-11-01T04:07:07.733Z,10.60
2022-11-01T04:10:10.429Z,10.60
2022-11-01T04:13:13.728Z,10.70
2022-11-01T04:16:34.704Z,10.70
2022-11-01T04:20:15.975Z,10.60
2022-11-01T04:23:18.125Z,10.60
2022-11-01T04:26:22.832Z,10.60
2022-11-01T04:29:24.913Z,10.60
2022-11-01T04:32:27.040Z,10.60
2022-11-01T04:35:29.080Z,10.60
2022-11-01T04:38:31.155Z,10.60
2022-11-01T04:41:33.209Z,10.50
2022-11-01T04:44:35.300Z,10.50
2022-11-01T04:47:37.388Z,10.40
2022-11-01T04:50:40.067Z,10.30
2022-11-01T04:53:42.132Z,10.20
2022-11-01T04:56:44.211Z,10.10
2022-11-01T04:59:46.282Z,10.10
2022-11-01T05:02:48.637Z,10.10
2022-11-01T05:05:50.893Z,10.10
2022-11-01T05:08:54.725Z,10.10
2022-11-01T05:11:56.799Z,10.10
2022-11-01T05:14:59.004Z,10.20
2022-11-01T05:18:01.921Z,10.20
2022-11-01T05:21:04.114Z,10.20
2022-11-01T05:24:07.503Z,10.30
2022-11-01T05:27:09.598Z,10.30
2022-11-01T05:30:12.769Z,10.30
2022-11-01T05:33:14.872Z,10.30
2022-11-01T05:36:16.975Z,10.20
2022-11-01T05:39:19.191Z,10.20
2022-11-01T05:42:21.270Z,10.30
2022-11-01T05:45:23.545Z,10.30
2022-11-01T05:48:25.699Z,10.30
2022-11-01T05:51:27.885Z,10.30
2022-11-01T05:54:29.988Z,10.30
2022-11-01T05:57:33.549Z,10.40
2022-11-01T06:00:35.833Z,10.40
2022-11-01T06:03:37.884Z,10.40
2022-11-01T06:06:39.929Z,10.40
2022-11-01T06:09:41.962Z,10.50
2022-11-01T06:12:44.012Z,10.60
2022-11-01T06:15:46.061Z,10.60
2022-11-01T06:18:48.099Z,10.70
2022-11-01T06:21:50.179Z,10.80
2022-11-01T06:24:52.240Z,10.80
2022-11-01T06:27:54.418Z,10.80
2022-11-01T06:30:56.518Z,10.80
2022-11-01T06:33:58.597Z,10.80
2022-11-01T06:37:00.715Z,10.90
2022-11-01T06:40:02.780Z,10.80
2022-11-01T06:43:06.005Z,10.80
2022-11-01T06:46:08.301Z,10.80
2022-11-01T06:49:14.781Z,10.70
2022-11-01T06:52:20.105Z,10.70
2022-11-01T06:55:22.133Z,10.70
2022-11-01T06:58:24.168Z,10.60
2022-11-01T07:01:26.669Z,10.60
2022-11-01T07:04:29.739Z,10.60
2022-11-01T07:07:31.781Z,10.60
2022-11-01T07:10:33.984Z,10.60
2022-11-01T07:13:38.309Z,10.60
2022-11-01T07:16:40.430Z,10.70
2022-11-01T07:19:42.470Z,10.70
2022-11-01T07:22:44.506Z,10.70
2022-11-01T07:25:51.767Z,10.70
2022-11-01T07:28:53.827Z,10.60
2022-11-01T07:31:55.891Z,10.70
2022-11-01T07:34:57.966Z,10.70
2022-11-01T07:38:02.764Z,10.70
2022-11-01T07:41:07.268Z,10.80
2022-11-01T07:44:09.465Z,10.90
2022-11-01T07:47:11.586Z,10.90
2022-11-01T07:50:13.680Z,10.90
2022-11-01T07:53:18.129Z,11.00
2022-11-01T07:56:21.754Z,11.00
2022-11-01T07:59:23.907Z,11.00
2022-11-01T08:02:26.089Z,10.90
2022-11-01T08:05:29.060Z,10.90
2022-11-01T08:08:31.093Z,10.90
2022-11-01T08:11:33.144Z,11.00
2022-11-01T08:14:35.184Z,10.90
2022-11-01T08:17:37.223Z,11.00
2022-11-01T08:20:39.393Z,11.10
2022-11-01T08:23:42.785Z,11.20
2022-11-01T08:26:44.909Z,11.20
2022-11-01T08:29:46.968Z,11.10
2022-11-01T08:32:49.010Z,11.10
2022-11-01T08:35:51.092Z,11.00
2022-11-01T08:38:53.135Z,11.00
2022-11-01T08:41:57.292Z,11.10
2022-11-01T08:44:59.328Z,11.00
2022-11-01T08:48:03.366Z,10.90
2022-11-01T08:51:05.458Z,10.80
2022-11-01T08:54:07.961Z,10.80
2022-11-01T08:57:09.987Z,10.70
2022-11-01T09:00:13.878Z,10.60
2022-11-01T09:03:15.967Z,10.60
2022-11-01T09:06:17.993Z,10.60
2022-11-01T09:09:20.104Z,10.60
2022-11-01T09:12:24.817Z,10.70
2022-11-01T09:15:27.299Z,10.70
2022-11-01T09:18:29.353Z,10.90
2022-11-01T09:21:32.055Z,10.90
2022-11-01T09:24:35.539Z,11.00
2022-11-01T09:27:37.657Z,11.00
2022-11-01T09:30:49.539Z,11.00
2022-11-01T09:33:56.244Z,11.00
2022-11-01T09:36:58.408Z,10.90
2022-11-01T09:40:00.426Z,10.70
2022-11-01T09:43:03.474Z,10.60
2022-11-01T09:46:06.144Z,10.70
2022-11-01T09:49:08.804Z,10.90
2022-11-01T09:52:19.096Z,10.90
2022-11-01T09:55:43.559Z,11.10
2022-11-01T09:59:12.562Z,11.30
2022-11-01T10:02:48.582Z,11.40
2022-11-01T10:06:28.533Z,11.30
2022-11-01T10:09:40.684Z,11.10
2022-11-01T10:13:04.900Z,11.00
2022-11-01T10:16:27.132Z,10.90
2022-11-01T10:19:32.791Z,11.10
2022-11-01T10:22:35.331Z,11.40
2022-11-01T10:25:38.465Z,11.30
2022-11-01T10:29:00.378Z,11.40
2022-11-01T10:32:02.465Z,11.40
2022-11-01T10:35:25.314Z,11.30
2022-11-01T10:39:29.923Z,11.30
2022-11-01T10:42:13.789Z,11.30
2022-11-01T10:45:19.425Z,11.20
2022-11-01T10:48:38.410Z,11.10
2022-11-01T10:51:40.717Z,11.20
2022-11-01T10:54:43.433Z,11.10
2022-11-01T10:57:53.133Z,11.10
2022-11-01T11:00:55.262Z,11.10
2022-11-01T11:03:59.484Z,11.10
2022-11-01T11:07:02.189Z,11.00
2022-11-01T11:10:04.501Z,11.00
2022-11-01T11:13:06.949Z,11.00
2022-11-01T11:16:26.463Z,11.10
2022-11-01T11:19:34.974Z,11.20
2022-11-01T11:22:39.863Z,11.80
2022-11-01T11:25:43.026Z,12.20
2022-11-01T11:28:53.886Z,12.20
2022-11-01T11:31:57.776Z,12.40
2022-11-01T11:35:16.920Z,12.40
2022-11-01T11:38:18.962Z,12.90
2022-11-01T11:41:39.191Z,12.90
2022-11-01T11:44:50.502Z,12.50
2022-11-01T11:47:57.500Z,13.00
2022-11-01T11:51:05.020Z,13.30
2022-11-01T11:54:06.936Z,13.00
2022-11-01T11:57:26.279Z,12.70
2022-11-01T12:00:29.524Z,12.30
2022-11-01T12:03:44.885Z,12.70
2022-11-01T12:06:46.983Z,13.40
2022-11-01T12:09:49.048Z,13.70
2022-11-01T12:12:52.823Z,13.30
2022-11-01T12:16:14.333Z,14.30
2022-11-01T12:19:28.780Z,15.30
2022-11-01T12:22:33.330Z,15.50
2022-11-01T12:25:35.793Z,15.50
2022-11-01T12:28:57.304Z,16.10
2022-11-01T12:32:05.444Z,13.50
2022-11-01T12:35:16.712Z,12.70
2022-11-01T12:38:48.532Z,12.40
2022-11-01T12:42:00.701Z,12.00
2022-11-01T12:45:27.113Z,11.90
2022-11-01T12:48:33.892Z,12.00
2022-11-01T12:51:41.887Z,12.00
2022-11-01T12:55:00.793Z,11.90
2022-11-01T12:58:12.990Z,11.90
2022-11-01T13:01:35.357Z,12.00
2022-11-01T13:04:45.376Z,11.90
2022-11-01T13:07:56.341Z,12.00
2022-11-01T13:11:04.207Z,12.20
2022-11-01T13:14:54.121Z,13.00
2022-11-01T13:18:20.017Z,12.40
2022-11-01T13:21:33.384Z,12.20
2022-11-01T13:25:05.692Z,12.10
2022-11-01T13:28:35.278Z,12.20
2022-11-01T13:32:29.105Z,12.20
2022-11-01T13:35:54.713Z,12.20
2022-11-01T13:39:02.161Z,12.20
2022-11-01T13:42:04.060Z,11.90
2022-11-01T13:45:33.503Z,12.00
2022-11-01T13:48:53.919Z,11.80
2022-11-01T13:52:20.640Z,11.90
2022-11-01T13:55:39.965Z,12.70
2022-11-01T13:58:42.020Z,14.90
2022-11-01T14:01:44.278Z,16.50
2022-11-01T14:05:09.379Z,17.20
2022-11-01T14:08:27.165Z,17.80
2022-11-01T14:11:46.453Z,17.20
2022-11-01T14:14:49.413Z,17.00
2022-11-01T14:17:57.747Z,16.10
2022-11-01T14:20:59.785Z,16.10
2022-11-01T14:24:20.385Z,16.30
2022-11-01T14:27:34.096Z,17.60
2022-11-01T14:30:38.423Z,17.80
2022-11-01T14:33:40.453Z,18.20
2022-11-01T14:36:42.545Z,17.30
2022-11-01T14:39:57.100Z,17.00
2022-11-01T14:43:15.369Z,17.60
2022-11-01T14:46:22.409Z,18.60
2022-11-01T14:49:45.379Z,17.00
2022-11-01T14:52:51.825Z,15.20
2022-11-01T14:56:19.645Z,14.30
2022-11-01T14:59:28.378Z,13.80
2022-11-01T15:02:30.539Z,13.80
2022-11-01T15:05:32.677Z,13.50
2022-11-01T15:08:41.261Z,12.90
2022-11-01T15:11:43.349Z,12.50
2022-11-01T15:14:45.697Z,12.10
2022-11-01T15:18:00.475Z,11.90
2022-11-01T15:21:03.114Z,11.70
2022-11-01T15:24:05.602Z,11.70
2022-11-01T15:27:13.413Z,11.50
2022-11-01T15:30:19.904Z,11.20
2022-11-01T15:33:24.481Z,11.10
2022-11-01T15:36:35.027Z,10.90
2022-11-01T15:39:37.961Z,10.80
2022-11-01T15:42:43.888Z,10.70
2022-11-01T15:45:48.132Z,10.60
2022-11-01T15:48:50.264Z,10.40
2022-11-01T15:52:21.183Z,10.30
2022-11-01T15:55:30.157Z,10.20
2022-11-01T15:58:41.452Z,10.10
2022-11-01T16:01:43.695Z,10.00
2022-11-01T16:04:46.448Z,9.90
2022-11-01T16:07:48.979Z,9.90
2022-11-01T16:10:51.112Z,9.80
2022-11-01T16:14:00.378Z,9.80
2022-11-01T16:17:33.638Z,9.90
2022-11-01T16:20:38.764Z,9.90
2022-11-01T16:24:21.556Z,9.80
2022-11-01T16:27:27.584Z,9.80
2022-11-01T16:30:43.069Z,9.70
2022-11-01T16:33:46.059Z,9.60
2022-11-01T16:36:48.715Z,9.60
2022-11-01T16:39:51.639Z,9.50
2022-11-01T16:42:53.942Z,9.50
2022-11-01T16:45:56.182Z,9.50
2022-11-01T16:49:08.362Z,9.50
2022-11-01T16:52:10.529Z,9.50
2022-11-01T16:55:12.824Z,9.60
2022-11-01T16:58:18.170Z,9.70
2022-11-01T17:01:25.316Z,9.90
2022-11-01T17:04:27.949Z,9.80
2022-11-01T17:07:30.788Z,9.70
2022-11-01T17:10:32.946Z,9.70
2022-11-01T17:13:36.424Z,9.60
2022-11-01T17:16:38.501Z,9.70
2022-11-01T17:19:43.076Z,9.70
2022-11-01T17:22:45.605Z,9.60
2022-11-01T17:25:51.269Z,9.80
2022-11-01T17:28:53.329Z,9.70
2022-11-01T17:31:55.406Z,9.80
2022-11-01T17:34:57.460Z,9.80
2022-11-01T17:37:59.649Z,9.70
2022-11-01T17:41:03.880Z,9.60
2022-11-01T17:44:06.027Z,9.70
2022-11-01T17:47:13.282Z,9.70
2022-11-01T17:50:16.260Z,9.60
2022-11-01T17:53:18.566Z,9.70
2022-11-01T17:56:20.821Z,9.70
2022-11-01T17:59:22.845Z,9.90
2022-11-01T18:02:25.085Z,9.90
2022-11-01T18:05:27.337Z,9.90
2022-11-01T18:08:31.157Z,9.80
2022-11-01T18:11:48.380Z,9.60
2022-11-01T18:15:22.365Z,9.60
2022-11-01T18:19:00.321Z,9.50
2022-11-01T18:22:24.687Z,9.60
2022-11-01T18:25:42.311Z,9.50
2022-11-01T18:28:44.510Z,9.50
2022-11-01T18:32:15.322Z,9.50
2022-11-01T18:35:33.471Z,9.50
2022-11-01T18:38:52.873Z,9.40
2022-11-01T18:41:55.149Z,9.40
2022-11-01T18:45:30.963Z,9.30
2022-11-01T18:48:33.214Z,9.30
2022-11-01T18:51:36.844Z,9.40
2022-11-01T18:54:45.848Z,9.40
2022-11-01T18:57:47.933Z,9.50
2022-11-01T19:01:16.454Z,9.50
2022-11-01T19:04:24.973Z,9.60
2022-11-01T19:07:39.462Z,9.50
2022-11-01T19:10:46.821Z,9.50
2022-11-01T19:13:49.553Z,9.50
2022-11-01T19:16:52.142Z,9.40
2022-11-01T19:19:54.747Z,9.40
2022-11-01T19:23:11.210Z,9.30
2022-11-01T19:26:39.248Z,9.30
2022-11-01T19:29:41.276Z,9.20
2022-11-01T19:32:43.341Z,9.20
2022-11-01T19:35:45.377Z,9.30
2022-11-01T19:38:48.008Z,9.30
2022-11-01T19:41:51.397Z,9.20
2022-11-01T19:45:00.271Z,9.30
2022-11-01T19:48:03.758Z,9.30
2022-11-01T19:51:15.555Z,9.20
2022-11-01T19:54:17.570Z,9.10
2022-11-01T19:57:34.525Z,9.20
2022-11-01T20:00:36.740Z,9.20
2022-11-01T20:03:44.541Z,9.10
2022-11-01T20:07:11.765Z,9.10
2022-11-01T20:10:15.079Z,9.10
2022-11-01T20:13:18.147Z,9.00
2022-11-01T20:16:20.170Z,9.00
2022-11-01T20:19:22.260Z,8.80
2022-11-01T20:22:24.481Z,8.70
2022-11-01T20:25:30.888Z,8.50
2022-11-01T20:28:33.139Z,8.40
2022-11-01T20:31:35.214Z,8.40
2022-11-01T20:34:37.361Z,8.40
2022-11-01T20:37:39.429Z,8.50
2022-11-01T20:40:41.686Z,8.40
2022-11-01T20:43:43.764Z,8.30
2022-11-01T20:46:45.785Z,8.20
2022-11-01T20:49:47.951Z,8.00
2022-11-01T20:52:49.993Z,8.10
2022-11-01T20:55:52.131Z,8.10
2022-11-01T20:58:54.167Z,8.10
2022-11-01T21:01:56.435Z,8.20
2022-11-01T21:05:26.565Z,8.20
2022-11-01T21:08:33.515Z,8.10
2022-11-01T21:11:44.924Z,8.20
2022-11-01T21:14:46.975Z,8.20
2022-11-01T21:17:52.840Z,8.10
2022-11-01T21:20:55.159Z,8.10
2022-11-01T21:24:00.249Z,8.10
2022-11-01T21:27:23.064Z,8.10
2022-11-01T21:30:25.570Z,8.10
2022-11-01T21:33:36.526Z,8.00
2022-11-01T21:36:48.007Z,8.00
2022-11-01T21:40:05.736Z,8.00
2022-11-01T21:43:22.471Z,7.90
2022-11-01T21:46:36.082Z,7.90
2022-11-01T21:49:38.134Z,8.00
2022-11-01T21:52:40.334Z,7.90
2022-11-01T21:55:42.418Z,7.90
2022-11-01T21:58:44.782Z,7.90
2022-11-01T22:01:47.704Z,7.90
2022-11-01T22:04:49.943Z,7.80
2022-11-01T22:07:51.996Z,7.80
2022-11-01T22:10:54.064Z,7.80
2022-11-01T22:13:56.157Z,7.80
2022-11-01T22:16:59.096Z,7.90
2022-11-01T22:20:01.475Z,7.90
2022-11-01T22:23:03.847Z,7.90
2022-11-01T22:26:06.268Z,7.70
2022-11-01T22:29:08.301Z,7.60
2022-11-01T22:32:10.358Z,7.70
2022-11-01T22:35:12.398Z,7.80
2022-11-01T22:38:18.841Z,7.80
2022-11-01T22:41:35.346Z,7.80
2022-11-01T22:44:37.682Z,7.80
2022-11-01T22:47:39.734Z,7.80
2022-11-01T22:50:41.769Z,7.70
2022-11-01T22:53:43.848Z,7.80
2022-11-01T22:56:45.854Z,7.70
2022-11-01T23:00:22.200Z,7.70
2022-11-01T23:03:35.208Z,7.70
2022-11-01T23:06:37.355Z,7.70
2022-11-01T23:09:40.127Z,7.60
2022-11-01T23:13:01.263Z,7.60
2022-11-01T23:16:36.906Z,7.50
2022-11-01T23:22:45.861Z,7.50
2022-11-01T23:25:48.089Z,7.40
2022-11-01T23:28:52.254Z,7.40
2022-11-01T23:31:54.285Z,7.40
2022-11-01T23:35:15.140Z,7.40
2022-11-01T23:38:29.909Z,7.40
2022-11-01T23:41:40.941Z,7.40
2022-11-01T23:44:43.044Z,7.40
2022-11-01T23:47:45.239Z,7.40
2022-11-01T23:50:47.369Z,7.30
2022-11-01T23:53:51.442Z,7.30
2022-11-01T23:56:53.628Z,7.20
2022-11-01T23:59:55.700Z,7.30
